x

9410230 - La Jolla, Ca (ljac1) Weather Station

10:54 - Tue 24th Jan 2017 All times are PST. -8 hours from GMT.

  • Wind
    8mph, 13mph gusts
  • Sea Temp 59°f
  • Luft Temp 55°f
  • Sea Pressure 1018.2mb
  • 9410230 - La Jolla, Ca
  • 9410230 - La Jolla, Ca

More Historic Weather Station data

Upgrade to MSW Pro to gain access to the past 30 days of data for over 8000 Wavebouys and Weather Stations around the globe.

Join Pro

Comparision Forecast

View Surf forecast
   
Di 01/24 10:54 8 13 mph 1018.2mb 59f 55f
10:48 13 15 mph 1018.2mb 59f 55f
10:42 6
mph
1018.2mb 59f 57f
10:36 3 5 mph 1018.1mb 59f 58f
10:30 2
mph
1018.1mb 59f 59f
10:24  -  1 mph 1018.1mb 59f 59f
10:18 1 3 mph 1018mb 59f 57f
10:12 2 5 mph 1018mb 58f 56f
10:06 3 5 mph 1017.9mb 58f 55f
10:00 3 5 mph 1017.8mb 58f 55f
9:54 5 7 mph 1017.7mb 58f 55f
9:48 5 9 mph 1017.6mb 59f 55f
9:42 7 9 mph 1017.6mb 59f 55f
9:36 5 8 mph 1017.5mb 58f 55f
9:30 9 13 mph 1017.5mb 58f 55f
9:24 3 9 mph 1017.5mb 58f 56f
9:18  -  5 mph 1017.4mb 58f 56f
9:12 3 6 mph 1017.3mb 58f 55f
9:06 5 8 mph 1017.2mb 58f 55f
9:00 6 9 mph 1017mb 58f 55f
8:54 7 9 mph 1017mb 58f 55f
8:48 8 10 mph 1016.9mb 58f 55f
8:42 7 10 mph 1016.8mb 58f 55f
8:36 7 11 mph 1016.8mb 58f 54f
8:30 6 11 mph 1016.7mb 58f 53f
8:24 10 13 mph 1016.6mb 58f 53f
8:18 10 14 mph 1016.5mb 58f 53f
8:12 10 14 mph 1016.5mb 58f 52f
8:06 9 14 mph 1016.4mb 58f 52f
8:00 8 11 mph 1016.4mb 58f 52f
7:54 9 14 mph 1016.4mb 58f 51f
7:48 10 13 mph 1016.3mb 58f 51f
7:42 10 14 mph 1016.3mb 58f 52f
7:36 11 15 mph 1016.4mb 58f 51f
7:30 8 10 mph 1016.5mb 58f 51f
7:24 9 11 mph 1016.4mb 58f 51f
7:18 7 11 mph 1016.3mb 58f 51f
7:12 9 13 mph 1016mb 58f 51f
7:06 9 11 mph 1015.9mb 58f 51f
7:00 11 14 mph 1015.7mb 58f 51f
6:54 13 14 mph 1015.7mb 58f 50f
6:48 11 14 mph 1015.8mb 58f 50f
6:42 10 14 mph 1015.7mb 58f 51f
6:36 13 14 mph 1015.8mb 58f 51f
6:30 11 15 mph 1015.6mb 58f 51f
6:24 11 14 mph 1015.5mb 58f 51f
6:18 9 13 mph 1015.5mb 58f 51f
6:12 8 11 mph 1015.5mb 58f 51f
6:06 9 13 mph 1015.5mb 58f 51f
6:00 10 13 mph 1015.5mb 58f 52f
5:54 9 13 mph 1015.4mb 58f 52f
5:48 11 14 mph 1015.3mb 58f 52f
5:42 3 10 mph 1015.3mb 58f 53f
5:36 6 10 mph 1015.2mb 58f 53f
5:30 7 8 mph 1015.1mb 58f 54f
5:24 5 8 mph 1015mb 58f 54f
5:18 6 10 mph 1015mb 58f 56f
5:12 6 14 mph 1014.9mb 58f 56f
5:06 10 14 mph 1014.8mb 58f 57f
5:00 13 16 mph 1014.8mb 58f 57f
4:54 14 18 mph 1014.8mb 58f 57f
4:48 14 17 mph 1014.8mb 58f 57f
4:42 13 17 mph 1014.8mb 58f 57f
4:36 13 18 mph 1014.7mb 58f 57f
4:30 14 17 mph 1014.7mb 58f 57f
4:24 14 17 mph 1014.6mb 58f 57f
4:18 13 17 mph 1014.6mb 58f 57f
4:12 14 17 mph 1014.6mb 58f 57f
4:06 13 15 mph 1014.6mb 58f 57f
4:00 10 14 mph 1014.6mb 58f 57f
3:54 9 14 mph 1014.6mb 58f 57f
3:48 10 15 mph 1014.5mb 58f 57f
3:42 13 15 mph 1014.6mb 58f 57f
3:36 11 16 mph 1014.5mb 58f 57f
3:30 13 15 mph 1014.5mb 58f 57f
3:24 14 17 mph 1014.5mb 58f 57f
3:18 14 17 mph 1014.4mb 58f 57f
3:12 14 17 mph 1014.4mb 58f 57f
3:06 13 18 mph 1014.4mb 58f 57f
3:00 14 18 mph 1014.4mb 58f 57f
2:54 17 21 mph 1014.4mb 58f 57f
2:48 17 21 mph 1014.3mb 58f 57f
2:42 15 18 mph 1014.4mb 58f 57f
2:36 14 20 mph 1014.4mb 58f 57f
2:30 17 21 mph 1014.4mb 58f 57f
2:24 17 21 mph 1014.4mb 58f 57f
2:18 16 20 mph 1014.5mb 58f 57f
2:12 14 20 mph 1014.5mb 58f 57f
2:06 17 20 mph 1014.4mb 58f 57f
2:00 16 20 mph 1014.4mb 58f 57f
1:54 16 22 mph 1014.3mb 58f 57f
1:48 14 21 mph 1014.3mb 58f 57f
1:42 15 21 mph 1014.2mb 58f 57f
1:36 16 21 mph 1014.2mb 58f 57f
1:30 14 21 mph 1014.2mb 58f 57f
1:24 15 18 mph 1014.2mb 58f 57f
1:18 17 24 mph 1014.3mb 58f 56f
1:12 24 28 mph 1014.3mb 58f 56f
1:06 18 23 mph 1014.2mb 58f 57f
12:54 22 24 mph 1014.1mb 58f 57f
12:48 17 22 mph 1014.1mb 58f 57f
12:42 21 23 mph 1014.1mb 58f 57f
12:36 18 24 mph 1014mb 58f 57f
12:30 18 23 mph 1014mb 58f 57f
12:24 18 23 mph 1014mb 58f 57f
12:18 17 22 mph 1013.9mb 58f 57f
12:12 15 20 mph 1013.8mb 58f 57f
12:06 13 17 mph 1013.8mb 58f 57f
12:00 14 26 mph 1013.8mb 58f 56f
Mo 01/23 11:54 20 24 mph 1013.8mb 58f 57f
11:48 22 25 mph 1013.8mb 59f 57f
11:42 20 23 mph 1013.8mb 59f 57f
11:36 17 22 mph 1013.8mb 59f 57f
11:30 8 18 mph 1013.8mb 59f 56f
11:24 21 29 mph 1014mb 59f 54f
11:18 14 20 mph 1013.7mb 59f 57f
11:12 17 23 mph 1013.8mb 59f 57f
11:06 10 17 mph 1013.8mb 59f 56f
11:00 22 28 mph 1013.9mb 59f 56f
10:54 15 20 mph 1013.8mb 59f 57f
10:48 15 18 mph 1013.8mb 59f -
10:42 13 15 mph 1013.7mb 59f -
10:36 10 13 mph 1013.7mb 59f -
10:30 10 14 mph 1013.7mb 59f 56f
10:24 14 18 mph 1013.7mb 59f 56f
10:18 16 21 mph 1013.7mb 59f 56f
10:12 14 17 mph 1013.5mb 59f 57f
10:06 15 18 mph 1013.5mb 59f 57f
10:00 11 14 mph 1013.4mb 59f 57f
9:54 11 14 mph 1013.3mb 59f 57f
9:48 10 13 mph 1013.2mb 59f 57f
9:42 11 17 mph 1013.2mb 59f 57f
9:36 13 16 mph 1013.2mb 59f 57f
9:30 11 15 mph 1013.2mb 59f 57f
9:24 11 15 mph 1013.1mb 59f 57f
9:18 14 16 mph 1013.1mb 59f 57f
9:12 11 16 mph 1013.1mb 59f 57f
9:06 11 17 mph 1013.1mb 59f 57f
9:00 14 17 mph 1013mb 59f 57f
8:54 13 17 mph 1013mb 59f 57f
8:48 13 17 mph 1013mb 59f 57f
8:42 15 20 mph 1013mb 59f 57f
8:36 15 18 mph 1013mb 59f 57f
8:30 14 18 mph 1012.9mb 59f 57f
8:24 13 16 mph 1012.9mb 59f 57f
8:18 14 17 mph 1012.9mb 59f 57f
8:12 14 16 mph 1012.8mb 59f 57f
8:06 10 15 mph 1012.9mb 59f 57f
8:00 11 16 mph 1012.9mb 59f 57f
7:54 15 18 mph 1012.9mb 59f 57f
7:48 14 21 mph 1012.9mb 59f 57f
7:42 15 21 mph 1012.9mb 59f 56f
7:36 20 26 mph 1012.9mb 59f 56f
7:30 18 22 mph 1012.9mb 59f 57f
7:24 15 20 mph 1012.8mb 59f 57f
7:18 15 21 mph 1012.8mb 59f 57f
7:12 14 18 mph 1012.7mb 59f 57f
7:06 16 22 mph 1012.8mb 59f 57f
7:00 15 22 mph 1012.7mb 59f 57f
6:54 17 22 mph 1012.7mb 59f 57f
6:48 17 21 mph 1012.6mb 59f 57f
6:42 16 23 mph 1012.6mb 59f 57f
6:36 15 22 mph 1012.6mb 59f 57f
6:30 14 20 mph 1012.6mb 59f 56f
6:24 13 28 mph 1012.5mb 59f 55f
6:18 22 30 mph 1012.6mb 59f 56f
6:12 15 20 mph 1012.3mb 59f 57f
6:06 14 21 mph 1012.3mb 59f 57f
6:00 16 21 mph 1012.3mb 59f 57f
5:54 18 21 mph 1012.3mb 59f 57f
5:48 14 17 mph 1012.3mb 59f 56f
5:42 9 11 mph 1012.3mb 59f 56f
5:36 10 13 mph 1012.2mb 59f 56f
5:30 6 10 mph 1012.2mb 59f 56f
5:24 7 11 mph 1012.1mb 59f 56f
5:18 10 13 mph 1012.2mb 59f 55f
5:12 9 13 mph 1012.2mb 59f 55f
5:06 9 13 mph 1012.2mb 59f 55f
5:00 11 13 mph 1012.2mb 59f 55f
4:54 10 14 mph 1012.1mb 59f 55f
4:48 13 18 mph 1012.1mb 59f 55f
4:42 17 26 mph 1012.1mb 59f 54f
4:36 26 32 mph 1012.2mb 59f 55f
4:30 21 28 mph 1012.1mb 59f 57f
4:24 16 22 mph 1011.9mb 59f 58f
4:18 16 21 mph 1011.9mb 59f 58f
4:12 15 20 mph 1011.8mb 59f 57f
4:06 16 21 mph 1011.7mb 59f 57f
4:00 18 21 mph 1011.7mb 59f 57f
3:54 15 20 mph 1011.7mb 59f 57f
3:48 20 23 mph 1011.6mb 59f 57f
3:42 16 22 mph 1011.7mb 59f 57f
3:36 14 21 mph 1011.6mb 59f 56f
3:30 15 24 mph 1011.6mb 59f 55f
3:24 21 26 mph 1011.7mb 59f 55f
3:18 13 17 mph 1011.4mb 59f 57f
3:12 16 18 mph 1011.5mb 59f 57f
3:06 11 14 mph 1011.6mb 59f 57f
3:00 9 14 mph 1011.7mb 59f 56f
2:54 11 14 mph 1011.7mb 59f 57f
2:48 11 14 mph 1011.9mb 59f 56f
2:42 11 14 mph 1012mb 59f 56f
2:36 11 14 mph 1012.1mb 59f 57f
2:30 9 13 mph 1012.1mb 59f 57f
2:24 10 14 mph 1012.1mb 59f 56f
2:18 11 14 mph 1012.1mb 59f 56f
2:12 10 14 mph 1012mb 59f 56f
2:06 10 14 mph 1011.9mb 59f 56f
2:00 13 16 mph 1012mb 59f 56f
1:54 10 14 mph 1012.1mb 59f 56f
1:48 8 14 mph 1012.1mb 59f 55f
1:42 10 16 mph 1012.2mb 59f 56f
1:36 14 16 mph 1012.2mb 59f 55f
1:30 15 18 mph 1012.3mb 59f 55f
1:24 16 22 mph 1012.3mb 59f 55f
1:18 18 25 mph 1012.3mb 59f 54f
1:12 23 29 mph 1012.4mb 59f 54f
1:06 26 32 mph 1012.6mb 59f 54f
1:00 17 22 mph 1012.4mb 59f 57f
12:54 14 17 mph 1012.2mb 59f 58f
12:48 14 17 mph 1012mb 59f 58f
12:42 13 16 mph 1011.9mb 59f 58f
12:36 6 16 mph 1012mb 59f 58f
12:30 11 20 mph 1012.3mb 59f 58f
12:24 17 25 mph 1012.4mb 59f 58f
12:18 18 23 mph 1012.7mb 59f 58f
12:12 18 21 mph 1012.8mb 59f 59f
12:06 17 22 mph 1013mb 59f 58f
12:00 16 20 mph 1013.2mb 59f 58f
11:54 17 22 mph 1013.4mb 59f 58f
11:48 15 24 mph 1013.4mb 59f 58f
11:42 21 25 mph 1013.8mb 59f 59f
11:36 21 29 mph 1013.8mb 59f 59f
11:30 21 32 mph 1014mb 59f 58f
11:24 21 24 mph 1014mb 59f 60f
11:18 18 25 mph 1014mb 59f 60f
11:12 22 25 mph 1014.3mb 59f 60f
11:06 23 25 mph 1014.4mb 59f 60f
11:00 23 25 mph 1014.4mb 59f 60f
10:54 20 23 mph 1014.5mb 59f 60f
10:48 16 18 mph 1014.6mb 59f 60f
10:42 14 17 mph 1014.6mb 59f 59f
10:36 15 17 mph 1014.7mb 59f 59f
10:30 15 17 mph 1014.9mb 59f 59f
10:24 14 16 mph 1014.9mb 59f 59f
10:18 13 15 mph 1014.9mb 59f 59f
10:12 11 15 mph 1015.1mb 59f 59f
10:06 11 14 mph 1015mb 59f 59f
10:00 13 14 mph 1015mb 59f 59f
9:54 11 14 mph 1015.1mb 59f 59f
9:48 11 14 mph 1015mb 59f 59f
9:42 14 15 mph 1015.1mb 59f 59f
9:36 16 20 mph 1015.1mb 59f 58f
9:30 18 20 mph 1015.1mb 59f 58f
9:24 17 20 mph 1015mb 59f 58f
9:18 18 22 mph 1015mb 59f 58f
9:00 15 17 mph 1014.8mb 59f 59f
8:54 13 17 mph 1014.7mb 59f 59f
8:48 15 17 mph 1014.9mb 59f 59f
8:42 10 16 mph 1014.8mb 59f 59f
8:36 13 17 mph 1014.8mb 59f 59f
8:30 15 21 mph 1014.8mb 59f 59f
8:24 18 21 mph 1014.7mb 59f 59f
8:18 17 24 mph 1014.6mb 59f 58f
8:12 21 23 mph 1014.6mb 59f 59f
8:06 15 21 mph 1014.4mb 59f 59f
8:00 17 28 mph 1014.2mb 59f 59f
7:54 20 25 mph 1014.3mb 59f 59f
7:48 18 21 mph 1014.3mb 59f 60f
7:42 17 25 mph 1014.3mb 59f 59f
7:36 20 25 mph 1014.2mb 59f 58f
7:30 16 23 mph 1014mb 59f 58f
7:24 9 13 mph 1014.1mb 59f 59f
7:18 9 11 mph 1014.2mb 59f 58f
7:12 11 15 mph 1014.3mb 59f 58f
7:06 13 15 mph 1014.3mb 59f 57f
7:00 15 18 mph 1014.3mb 59f 57f
6:54 18 23 mph 1014.5mb 59f 56f
6:48 16 33 mph 1014.5mb 59f 55f
6:42 24 31 mph 1014.3mb 59f 58f
6:36 20 22 mph 1014mb 59f 60f
6:30 14 18 mph 1014mb 59f 60f
6:24 15 21 mph 1013.9mb 59f 60f
6:18 14 20 mph 1013.9mb 59f 60f
6:12 16 20 mph 1014mb 59f 60f
6:06 15 18 mph 1014mb 59f 60f
6:00 15 17 mph 1013.9mb 59f 60f
5:54 13 17 mph 1013.9mb 59f 60f
5:48 13 16 mph 1013.8mb 59f 60f
5:42 14 17 mph 1014mb 59f 60f
5:36 14 16 mph 1014mb 59f 60f
5:30 15 17 mph 1013.9mb 59f 60f
5:24 15 20 mph 1013.9mb 59f 60f
5:18 15 17 mph 1013.9mb 59f 60f
5:12 14 17 mph 1013.9mb 59f 60f
5:06 11 17 mph 1013.8mb 59f 60f
5:00 15 17 mph 1013.8mb 59f 60f
4:54 14 18 mph 1013.8mb 59f 60f
4:48 16 18 mph 1013.9mb 59f 59f
4:42 14 24 mph 1013.9mb 59f 59f
4:36 20 23 mph 1014mb 59f 59f
4:30 22 26 mph 1014mb 59f 60f
4:24 15 18 mph 1013.7mb 59f 61f
4:18 18 21 mph 1013.8mb 59f 61f
4:12 20 22 mph 1014mb 59f 61f
4:06 18 22 mph 1014mb 59f 61f
4:00 16 18 mph 1013.9mb 59f 61f
3:54 17 21 mph 1013.9mb 59f 61f
3:48 17 21 mph 1014mb 59f 61f
3:42 17 21 mph 1013.9mb 59f 61f
3:36 18 21 mph 1014mb 59f 61f
3:30 16 18 mph 1013.9mb 59f 61f
3:24 13 15 mph 1013.9mb 59f 60f
3:18 14 21 mph 1013.9mb 59f 61f
3:12 11 16 mph 1013.9mb 59f 61f
3:06 14 16 mph 1014mb 59f 61f
3:00 13 16 mph 1014.1mb 59f 61f
2:54 13 16 mph 1014.1mb 59f 61f
2:48 14 16 mph 1014.3mb 59f 61f
2:42 14 17 mph 1014.3mb 59f 61f
2:36 14 18 mph 1014.4mb 59f 61f
2:30 16 21 mph 1014.5mb 59f 61f
2:24 17 21 mph 1014.5mb 59f 61f
2:18 15 21 mph 1014.3mb 59f 61f
2:12 16 21 mph 1014.4mb 59f 61f
2:06 15 18 mph 1014.3mb 59f 61f
2:00 15 21 mph 1014.2mb 59f 61f
1:54 18 23 mph 1014.2mb 59f 61f
1:48 16 22 mph 1014.2mb 59f 61f
1:42 16 20 mph 1014.2mb 59f 61f
1:36 20 28 mph 1014.4mb 59f 61f
1:30 17 22 mph 1014.4mb 59f 61f
1:24 13 15 mph 1014.3mb 59f 61f
1:18 13 15 mph 1014.4mb 59f 61f
1:12 14 20 mph 1014.4mb 59f 61f
1:06 14 17 mph 1014.4mb 59f 61f
1:00 13 18 mph 1014.5mb 59f 61f
12:54 13 17 mph 1014.6mb 59f 61f
12:48 11 14 mph 1014.7mb 59f 61f
12:42 13 16 mph 1014.7mb 59f 61f
12:36 11 15 mph 1014.8mb 59f 61f
12:30 10 14 mph 1014.7mb 59f 61f
12:24 13 16 mph 1014.8mb 59f 61f
12:18 10 13 mph 1014.9mb 59f 61f
12:12 10 14 mph 1014.9mb 59f 61f
12:06 10 13 mph 1015.1mb 59f 61f
12:00 9 13 mph 1015.1mb 59f 61f
So 01/22 11:54 9 13 mph 1015.1mb 59f 62f
11:48 10 14 mph 1015.2mb 59f 62f
11:42 11 14 mph 1015.2mb 59f 62f
11:36 11 14 mph 1015.3mb 59f 62f
11:30 14 16 mph 1015.5mb 59f 62f
11:24 13 14 mph 1015.5mb 59f 62f
11:18 13 15 mph 1015.6mb 59f 62f
11:12 13 14 mph 1015.6mb 59f 62f
11:06 11 14 mph 1015.7mb 59f 62f
11:00 11 18 mph 1015.7mb 59f 62f
10:54 14 17 mph 1015.9mb 59f 62f
10:48 13 17 mph 1015.9mb 59f 62f
10:42 14 17 mph 1015.7mb 59f 62f
10:36 16 18 mph 1015.8mb 59f 62f
10:30 16 20 mph 1015.7mb 59f 62f
10:24 15 18 mph 1015.6mb 59f 62f
10:18 15 21 mph 1015.5mb 59f 62f
10:12 17 21 mph 1015.5mb 59f 62f
10:06 18 21 mph 1015.3mb 59f 62f
10:00 20 23 mph 1015.2mb 59f 62f
9:54 20 25 mph 1015.2mb 59f 62f
9:48 20 25 mph 1015.1mb - -
9:42 18 24 mph 1015mb - -
9:36 22 32 mph 1015.1mb - -
9:30 28 32 mph 1015.1mb 59f 61f
9:24 23 29 mph 1014.8mb 59f 61f
9:18 22 37 mph 1014.9mb 59f 60f
9:12 23 34 mph 1014.9mb 59f 60f
9:06 29 39 mph 1015.1mb 59f 60f
9:00 24 41 mph 1015mb 59f 60f
8:54 25 32 mph 1014.9mb 59f 60f
8:48 22 33 mph 1014.7mb 59f 60f
8:42 24 36 mph 1014.8mb 59f 60f
8:36 28 38 mph 1014.7mb 59f 60f
8:30 26 32 mph 1014.5mb 59f 60f
8:24 22 36 mph 1014.4mb 59f 60f
8:18 31 37 mph 1014.7mb 59f 60f
8:12 23 39 mph 1014.6mb 59f 60f
8:06 26 34 mph 1014.7mb 59f 59f
8:00 23 33 mph 1014.5mb 59f 59f
7:54 22 33 mph 1014.6mb 59f 59f
7:48 25 37 mph 1014.7mb 59f 59f
7:42 25 37 mph 1014.8mb 59f 59f
7:36 26 34 mph 1014.8mb 59f 60f
7:30 31 40 mph 1014.9mb 59f 59f
7:24 29 40 mph 1014.8mb 59f 59f
7:18 31 40 mph 1014.8mb 59f 59f
7:12 30 40 mph 1014.8mb 59f 59f
7:06 30 36 mph 1014.8mb 59f 59f
7:00 26 45 mph 1014.7mb 59f 59f
6:54 31 43 mph 1014.7mb 59f 59f
6:48 28 45 mph 1014.6mb 59f 60f
6:42 32 45 mph 1014.6mb 59f 60f
6:36 33 41 mph 1014.6mb 59f 59f
6:30 29 40 mph 1014.3mb 59f 60f
6:24 31 47 mph 1014.3mb 59f 59f
6:18 31 40 mph 1014.3mb 59f 60f
6:12 31 38 mph 1014.4mb 59f 60f
6:06 36 41 mph 1014.3mb 59f 59f
6:00 31 46 mph - 59f 60f
5:54 33 45 mph - 59f 60f
5:48 32 45 mph 1014.3mb 59f 60f
5:42 32 39 mph 1014.2mb 59f 60f
5:36 32 43 mph 1014.2mb 59f 60f
5:30 32 39 mph 1014.3mb 59f -
5:24 29 40 mph 1014.2mb 59f -
5:18 29 41 mph 1014.3mb 59f 60f
5:12 28 38 mph 1014.4mb 59f 60f
5:06 28 43 mph 1014.4mb 59f 60f
5:00 28 39 mph 1014.3mb 59f 60f
4:54 33 39 mph 1014.2mb 59f 59f
4:48 31 43 mph 1014.4mb 59f 60f
4:42 29 41 mph 1014.4mb 59f 60f
4:36 31 40 mph 1014.6mb 59f 60f
4:30 37 47 mph 1014.6mb 59f 60f
4:24 26 39 mph 1014.6mb 59f 61f
4:18 32 44 mph 1014.2mb 59f 61f
4:12 30 41 mph 1014.2mb 59f 61f
4:06 28 36 mph 1014.5mb 59f 61f
4:00 29 41 mph 1014.8mb 59f 62f
3:54 28 40 mph 1014.8mb 59f 62f
3:48 32 39 mph 1014.8mb 59f -
3:42 34 44 mph 1014.6mb 59f -
3:36 26 37 mph 1014.2mb 59f -
3:30 31 39 mph 1014.3mb 59f 63f
3:24 32 38 mph 1014.5mb 59f 63f
3:18 33 45 mph 1014.5mb 59f 63f
3:12 31 46 mph 1014.5mb 59f 63f
3:06 33 41 mph 1014.7mb 59f 63f
3:00 36 45 mph 1014.6mb 59f 62f
2:54 31 48 mph 1014.9mb 59f 62f
2:48 34 40 mph - 59f 62f
2:42 31 40 mph - 59f 62f
2:36 29 40 mph - 59f 62f
2:30 34 46 mph 1014.6mb 59f 62f
2:24 37 46 mph 1015.1mb 59f 62f
2:18 38 46 mph 1015.2mb 59f 62f
2:12 33 44 mph 1015.2mb 59f 62f
2:06 26 47 mph 1015.3mb 59f 62f
2:00 32 47 mph 1015.7mb 59f 62f
1:54 30 37 mph 1015.8mb 59f 62f
1:48 28 39 mph 1015.9mb 59f 62f
1:42 28 36 mph 1016.1mb 59f 62f
1:36 25 37 mph 1016.3mb 59f 62f
1:30 29 40 mph 1016.5mb 59f 62f
1:24 23 32 mph 1016.6mb 59f 62f
1:18 30 37 mph 1016.9mb 59f 62f
1:12 21 36 mph 1016.8mb 59f 62f
1:06 28 39 mph 1017.1mb 59f 62f
1:00 23 36 mph 1017.2mb 59f 62f
12:54 25 34 mph 1017.2mb 59f 62f
12:48 21 32 mph 1017.3mb 59f 62f
12:42 28 33 mph 1017.7mb 59f 61f
12:36 25 30 mph 1017.9mb 59f 61f
12:30 23 31 mph 1018.1mb 59f 61f
12:24 23 29 mph 1018.4mb 59f 61f
12:18 22 28 mph 1018.6mb 59f 61f
12:12 22 28 mph 1018.8mb 59f 61f
12:06 18 31 mph 1018.9mb 59f 61f
12:00 22 26 mph 1019mb 59f 61f
11:54 20 30 mph 1019.1mb 59f 61f
11:48 16 28 mph 1019.2mb 59f 61f
11:42 20 30 mph 1019.5mb 59f 61f
11:36 21 25 mph 1019.6mb 59f 61f
11:30 18 24 mph 1019.8mb 59f 61f
11:24 16 25 mph 1019.9mb 59f 61f
11:18 20 26 mph 1020mb 59f 61f
11:12 20 24 mph 1020mb 59f 61f
11:06 15 22 mph 1020.1mb 59f 61f
11:00 15 21 mph 1020.2mb 59f 61f
10:54 15 22 mph 1020.6mb 59f 61f
10:48 15 22 mph 1020.5mb 59f 61f
10:42 18 26 mph 1020.8mb 59f 61f
10:30 14 21 mph 1021.2mb 59f 60f
10:24 14 20 mph 1021.1mb 59f 60f
10:18 14 20 mph 1021mb 59f 60f
10:12 16 22 mph 1020.8mb 59f 60f
10:06 16 20 mph 1021mb 59f 60f
10:00 11 16 mph 1021.1mb 59f 60f
9:54 14 18 mph 1021.2mb 59f 60f
9:48 16 21 mph 1021.1mb 59f 60f
9:42 14 17 mph 1021.4mb 59f 60f
9:36 13 18 mph 1021.3mb 59f 60f
9:30 11 16 mph 1021.2mb 59f 60f
9:24 11 16 mph 1021.2mb 59f 60f
9:18 14 18 mph 1021.2mb 59f 60f
9:12 10 15 mph 1021.3mb 59f 59f
9:06 13 16 mph 1021mb 59f 59f
9:00 9 16 mph 1020.5mb 59f 59f
8:54 13 16 mph 1020.3mb 59f 59f
8:48 7 10 mph 1020.6mb 59f 59f
8:42 6 8 mph 1020.7mb 59f 58f
8:36 6 11 mph 1020.7mb 59f 58f
8:30 9 13 mph 1020.7mb 59f 58f
8:24 9 11 mph 1020.4mb 59f 58f
8:18 6 10 mph 1020.4mb 59f 58f
8:12 7 9 mph 1020.5mb 59f 57f
8:06 8 11 mph 1020.3mb 59f 58f
8:00 7 13 mph 1020.1mb 59f 58f
7:54 9 13 mph 1019.9mb 59f 58f
7:48 7 10 mph 1020mb - 58f
7:42 9 11 mph 1019.9mb - 58f
7:36 8 13 mph 1019.8mb - 57f
7:30 8 9 mph 1019.9mb 59f 57f
7:24 6 10 mph 1019.9mb 59f 57f
7:18 7 10 mph 1019.7mb 59f 57f
7:12 8 11 mph 1019.6mb 59f 57f
7:06 9 13 mph 1019.4mb 59f 57f
7:00 9 11 mph 1019.4mb 59f 57f
6:54 9 14 mph 1019.3mb 59f 57f
6:48 9 11 mph 1019.1mb 59f 57f
6:42 8 10 mph 1019.2mb 59f 57f
6:36 8 11 mph 1019.4mb 59f 58f
6:30 8 10 mph 1019.6mb 59f 57f
6:24 7 10 mph 1019.7mb 59f 57f
6:18 7 10 mph 1019.6mb 59f 57f
6:12 7 10 mph 1019.6mb 59f 57f
6:06 5 6 mph 1019.7mb 59f 56f
6:00 3 7 mph 1019.6mb 59f 56f
5:54 2 8 mph 1019.6mb 59f 56f
5:48 7 10 mph - 59f 56f
5:42 9 11 mph - 59f 56f
5:36 9 11 mph - 59f 56f
5:30 9 11 mph 1019mb 59f 56f
5:24 9 11 mph 1018.8mb 59f 56f
5:18 11 15 mph 1018.4mb 59f 56f
5:12 9 13 mph 1018.5mb 59f 56f
5:06 9 11 mph 1018.9mb 59f 56f
5:00 8 11 mph 1019mb 59f 56f
4:54 7 10 mph 1019.1mb 59f 57f
4:48 7 10 mph 1019mb 59f 57f
4:42 6 9 mph 1019.1mb 59f 57f
4:36 7 9 mph 1019.3mb 59f 57f
4:30 6 10 mph 1019.3mb 59f 57f
4:24 7 10 mph 1019.2mb 59f 56f
4:18 7 11 mph 1019.3mb 59f 56f
4:12 8 11 mph 1019mb 59f 56f
4:06 8 11 mph 1019.1mb 59f 56f
4:00 8 10 mph 1019.3mb 59f 56f
3:54 7 10 mph 1019.3mb 59f 56f
3:48 6 8 mph 1019.4mb 59f 55f
3:42 3 11 mph 1019.5mb 59f 56f
3:36 9 13 mph 1019.4mb 59f 56f
3:30 10 13 mph 1019.2mb 59f 55f
3:24 9 13 mph 1019.3mb 59f 55f
3:18 9 13 mph 1019.3mb 59f 55f
3:12 7 13 mph 1019.3mb 59f 55f
3:06 9 13 mph 1019.3mb 59f 55f
3:00 10 14 mph 1019.4mb 59f 55f
2:54 10 13 mph 1019.6mb 59f 55f
2:48 10 14 mph 1019.5mb 59f 55f
2:42 11 14 mph 1019.5mb 59f 55f
2:36 9 14 mph 1019.7mb 59f 55f
2:30 9 13 mph 1019.8mb 59f 55f
2:24 7 13 mph 1019.8mb 59f 55f
2:18 9 14 mph 1019.8mb 59f 55f
2:12 10 15 mph 1019.7mb 59f 55f
2:06 11 15 mph 1019.4mb 59f 56f
2:00 11 14 mph 1019.8mb 59f 55f
1:54 11 15 mph 1019.7mb 59f 55f
1:48 11 15 mph 1019.7mb 59f 55f
1:42 10 14 mph 1019.8mb 59f 55f
1:36 11 14 mph 1019.7mb 59f 55f
1:30 9 13 mph 1019.7mb 59f 55f
1:24 11 14 mph 1019.9mb 59f 55f
1:18 8 13 mph 1020mb 59f 55f
1:12 10 15 mph 1019.8mb 59f 55f
1:06 10 13 mph 1019.9mb 59f 55f
1:00 10 13 mph 1020.2mb 59f 54f
12:54 9 13 mph 1020mb 59f 54f
12:48 9 14 mph 1020.1mb 59f 54f
12:42 13 15 mph 1019.9mb 59f 54f
12:36 11 15 mph 1020.1mb 59f 54f
12:30 11 14 mph 1020.4mb 59f 55f
12:24 11 14 mph 1020.5mb 59f 55f
12:18 11 14 mph 1020.4mb 59f 55f
12:12 10 14 mph 1020.5mb 59f 55f
Sa 01/21 8:30 18 22 mph 1012.3mb 58f 59f
8:24 18 22 mph 1011.9mb 59f 59f
8:18 21 23 mph 1011.8mb 59f 59f
8:12 17 24 mph 1011.6mb 58f 59f
8:06 20 23 mph 1011.5mb 58f 59f
8:00 20 25 mph 1011.4mb 58f 59f
7:54 18 23 mph 1011.5mb 58f 59f
7:48 21 25 mph 1011.1mb 58f 59f
7:42 17 24 mph 1011.2mb 59f 59f
7:36 22 24 mph 1011mb 58f 59f
7:30 18 24 mph 1010.9mb 59f 59f
7:24 21 26 mph 1010.8mb 59f 59f
7:18 21 24 mph 1010.8mb 59f 58f
7:12 20 25 mph 1010.4mb 59f 58f
7:06 22 26 mph 1010.3mb 59f 59f
7:00 20 25 mph 1010mb 59f 59f
6:54 20 25 mph 1009.9mb 59f 59f
6:48 22 25 mph 1009.6mb 59f 59f
6:42 22 25 mph 1009.7mb 59f 59f
6:36 22 26 mph 1009.7mb 59f 59f
6:30 21 25 mph 1009.5mb 59f 59f
6:24 21 25 mph 1009.5mb 59f 59f
6:18 20 25 mph 1009.3mb 59f 58f
6:12 17 23 mph 1009.1mb 59f 59f
6:06 21 26 mph 1008.9mb 59f 58f
6:00 21 24 mph 1008.7mb 59f 58f
5:54 22 29 mph 1008.6mb 59f 58f
5:48 22 24 mph 1008.5mb 59f 58f
5:42 22 25 mph 1008.2mb 59f 58f
5:36 24 29 mph 1008.1mb 59f 58f
5:30 22 25 mph 1008.2mb 59f 59f
5:24 22 29 mph 1008.1mb 59f 59f
5:18 25 29 mph 1008.1mb 59f 59f
5:12 22 28 mph 1008.1mb 59f 59f
5:06 24 28 mph 1008.1mb 59f 59f
5:00 23 29 mph 1008mb 59f 59f
4:54 25 29 mph 1008.1mb 59f 59f
4:48 24 29 mph 1008mb 59f 59f
4:42 22 28 mph 1008mb 59f 59f
4:36 25 29 mph 1007.8mb 59f 58f
4:30 22 29 mph 1007.8mb 59f 59f
4:24 23 28 mph 1007.5mb 59f 58f
4:18 22 28 mph 1007.4mb 59f 58f
4:12 23 31 mph 1007.1mb 59f 58f
4:06 24 28 mph 1007mb 59f 58f
4:00 21 23 mph 1006.8mb 59f 58f
3:54 18 23 mph 1006.8mb 59f 58f
3:48 20 24 mph 1006.7mb 59f 58f
3:42 18 25 mph 1006.7mb 59f 58f
3:36 17 24 mph 1006.6mb 59f 58f
3:30 20 24 mph 1006.5mb 59f 58f
3:24 20 24 mph 1006.2mb 59f 58f
3:12 18 22 mph 1005.8mb 59f 58f
3:06 20 25 mph 1005.9mb 59f 58f
3:00 17 25 mph 1005.9mb 59f 58f
2:54 22 26 mph 1006mb 59f 58f
2:48 24 28 mph 1006mb 59f 58f
2:42 22 26 mph 1005.9mb 59f 58f
2:36 21 28 mph 1005.9mb 59f 58f
2:30 24 28 mph 1005.8mb 59f 59f
2:24 22 26 mph 1005.8mb 59f 59f
2:18 21 26 mph 1005.6mb 59f 59f
2:12 22 26 mph 1005.6mb 59f 59f
2:06 24 28 mph 1005.5mb 59f 59f
2:00 21 25 mph 1005.4mb 59f 59f
1:54 22 26 mph 1005.2mb 59f 59f
1:48 22 26 mph 1005.2mb 59f 59f
1:42 24 30 mph 1005.1mb 59f 59f
1:36 25 31 mph 1004.9mb 59f 59f
1:30 26 31 mph 1004.8mb 59f 59f
1:24 23 29 mph 1004.8mb 59f 59f
1:18 22 29 mph 1004.8mb 59f 59f
1:12 21 28 mph 1004.7mb 59f 59f
1:06 21 26 mph 1004.5mb 59f 59f
1:00 21 23 mph 1004.4mb 59f 59f
12:54 17 25 mph 1004.3mb 59f 59f
12:48 20 29 mph 1004.3mb 59f 59f
12:42 23 28 mph 1004.3mb 59f 59f
12:36 20 25 mph 1004.2mb 59f 59f
12:30 22 26 mph 1004.3mb 59f 59f
12:24 24 29 mph 1004.2mb 59f 59f
12:18 22 26 mph 1004.2mb 59f 59f
12:12 20 23 mph 1004.1mb 59f 59f
12:06 21 25 mph 1004.2mb 59f 59f
12:00 21 24 mph 1004.1mb 59f 59f
Fr 01/20 11:54 20 25 mph 1004.1mb 59f 59f
11:48 23 28 mph 1004.1mb 59f 59f
11:42 22 26 mph 1004.1mb 59f 59f
11:36 23 30 mph 1004.1mb 59f 59f
11:30 23 31 mph 1004.1mb 59f 60f
11:24 24 29 mph 1004.1mb 59f 60f
11:18 23 29 mph 1004.1mb 59f 60f
11:12 21 28 mph 1004.1mb 59f 60f
11:06 22 30 mph 1004mb 59f 60f
11:00 24 29 mph 1004.1mb 59f 60f
10:54 25 30 mph 1004mb 59f 60f
10:48 24 29 mph 1003.9mb 59f 60f
10:42 25 29 mph 1003.9mb 59f 60f
10:36 20 25 mph 1003.7mb 59f 60f
10:30 18 28 mph 1003.7mb 59f 60f
10:24 24 28 mph 1003.8mb 59f 60f
10:18 23 29 mph 1003.7mb 59f 60f
10:12 23 28 mph 1003.7mb 59f 60f
10:06 23 29 mph 1003.6mb 59f 60f
10:00 23 28 mph 1003.5mb 59f 60f
9:54 24 29 mph 1003.3mb 59f 60f
9:48 25 29 mph 1003.3mb 59f -
9:42 25 29 mph 1003.2mb 59f -
9:36 23 25 mph 1003.2mb 59f -
9:30 17 22 mph 1003.1mb 59f 60f
9:24 17 24 mph 1003.1mb 59f 60f
9:18 22 25 mph 1003mb 59f 60f
9:12 21 24 mph 1002.8mb 59f 60f
9:06 20 25 mph 1002.7mb 59f 60f
9:00 22 26 mph 1002.7mb 59f 60f
8:54 22 30 mph 1002.8mb 59f 60f
8:48 23 28 mph 1002.9mb 59f 60f
8:42 24 28 mph 1002.7mb 59f 60f
8:36 20 24 mph 1002.4mb 59f 60f
8:30 17 23 mph 1002.5mb 59f 60f
8:24 14 18 mph 1002.4mb 59f 60f
8:18 16 21 mph 1002.4mb 59f 60f
8:12 17 21 mph 1002.3mb 59f 60f
8:06 16 18 mph 1002.3mb 59f 60f
8:00 16 22 mph 1002.4mb 59f 60f
7:54 18 23 mph 1002.4mb 59f 60f
7:48 21 24 mph 1002.4mb 59f 60f
7:42 18 23 mph 1002.4mb 59f 60f
7:36 18 24 mph 1002.4mb 59f 60f